createdAt,value
2018-05-17T00:01:17.568Z,13.37
2018-05-17T00:03:45.137Z,12.00
2018-05-17T00:06:12.660Z,11.80
2018-05-17T00:08:40.652Z,12.70
2018-05-17T00:11:08.221Z,12.60
2018-05-17T00:13:35.755Z,13.00
2018-05-17T00:16:03.281Z,11.60
2018-05-17T00:18:31.020Z,12.43
2018-05-17T00:20:58.565Z,13.33
2018-05-17T00:23:26.105Z,11.43
2018-05-17T00:25:53.665Z,11.60
2018-05-17T00:28:21.192Z,12.63
2018-05-17T00:30:48.716Z,13.93
2018-05-17T00:33:16.267Z,13.20
2018-05-17T00:35:43.797Z,11.90
2018-05-17T00:38:11.387Z,11.60
2018-05-17T00:40:38.958Z,11.63
2018-05-17T00:43:06.483Z,11.77
2018-05-17T00:45:35.017Z,12.03
2018-05-17T00:48:03.065Z,10.30
2018-05-17T00:50:30.598Z,11.00
2018-05-17T00:53:09.798Z,12.40
2018-05-17T00:55:37.320Z,11.07
2018-05-17T00:58:04.845Z,11.17
2018-05-17T01:00:32.636Z,12.83
2018-05-17T01:03:00.156Z,13.73
2018-05-17T01:05:27.688Z,12.30
2018-05-17T01:07:55.252Z,14.27
2018-05-17T01:10:22.772Z,13.90
2018-05-17T01:12:50.301Z,13.67
2018-05-17T01:15:17.871Z,14.67
2018-05-17T01:17:45.401Z,14.53
2018-05-17T01:20:12.933Z,14.83
2018-05-17T01:22:40.494Z,16.07
2018-05-17T01:25:08.024Z,17.60
2018-05-17T01:27:35.541Z,16.33
2018-05-17T01:30:03.133Z,16.80
2018-05-17T01:32:30.660Z,18.93
2018-05-17T01:34:58.266Z,17.70
2018-05-17T01:37:37.686Z,18.97
2018-05-17T01:40:05.213Z,20.33
2018-05-17T01:42:32.736Z,21.60
2018-05-17T01:45:00.319Z,23.27
2018-05-17T01:47:27.839Z,15.50
2018-05-17T01:49:55.364Z,24.83
2018-05-17T01:52:23.056Z,23.27
2018-05-17T01:54:50.577Z,26.80
2018-05-17T01:57:18.323Z,26.67
2018-05-17T01:59:46.105Z,27.23
2018-05-17T02:02:13.633Z,28.30
2018-05-17T02:04:41.156Z,30.43
2018-05-17T02:07:08.937Z,30.43
2018-05-17T02:09:36.473Z,31.07
2018-05-17T02:12:04.002Z,34.80
2018-05-17T02:14:31.784Z,33.90
2018-05-17T02:16:59.304Z,32.27
2018-05-17T02:19:26.874Z,35.70
2018-05-17T02:21:54.428Z,34.30
2018-05-17T02:24:21.957Z,35.00
2018-05-17T02:26:49.484Z,34.37
2018-05-17T02:29:17.376Z,35.67
2018-05-17T02:31:44.905Z,34.40
2018-05-17T02:34:12.425Z,34.77
2018-05-17T02:36:40.272Z,37.97
2018-05-17T02:39:07.796Z,36.10
2018-05-17T02:41:35.325Z,36.97
2018-05-17T02:44:02.897Z,37.20
2018-05-17T02:46:30.520Z,35.27
2018-05-17T02:48:58.037Z,35.40
2018-05-17T02:51:25.781Z,35.50
2018-05-17T02:53:53.313Z,34.70
2018-05-17T02:56:20.837Z,36.07
2018-05-17T02:58:48.599Z,33.40
2018-05-17T03:01:16.125Z,33.90
2018-05-17T03:03:43.649Z,35.20
2018-05-17T03:06:11.376Z,33.43
2018-05-17T03:08:38.921Z,32.97
2018-05-17T03:11:06.440Z,31.90
2018-05-17T03:13:34.368Z,28.90
2018-05-17T03:16:01.897Z,28.70
2018-05-17T03:18:29.424Z,28.60
2018-05-17T03:20:57.152Z,29.63
2018-05-17T03:23:24.678Z,30.60
2018-05-17T03:25:52.217Z,29.33
2018-05-17T03:28:19.788Z,29.90
2018-05-17T03:30:47.621Z,28.30
2018-05-17T03:33:15.140Z,28.17
2018-05-17T03:35:42.909Z,24.50
2018-05-17T03:38:10.441Z,25.60
2018-05-17T03:40:37.968Z,23.83
2018-05-17T03:43:05.690Z,24.27
2018-05-17T03:45:33.217Z,23.90
2018-05-17T03:48:00.748Z,24.70
2018-05-17T03:50:28.649Z,23.10
2018-05-17T03:52:56.176Z,24.30
2018-05-17T03:55:23.700Z,22.87
2018-05-17T03:57:51.269Z,22.67
2018-05-17T04:00:18.793Z,22.93
2018-05-17T04:02:58.462Z,20.37
2018-05-17T04:05:37.801Z,21.27
2018-05-17T04:08:05.361Z,21.77
2018-05-17T04:10:32.888Z,22.40
2018-05-17T04:13:00.422Z,23.73
2018-05-17T04:15:28.228Z,21.13
2018-05-17T04:17:55.745Z,21.30
2018-05-17T04:20:23.276Z,21.30
2018-05-17T04:22:51.007Z,22.27
2018-05-17T04:25:18.532Z,24.57
2018-05-17T04:27:46.361Z,24.83
2018-05-17T04:30:13.913Z,29.37
2018-05-17T04:32:41.445Z,31.33
2018-05-17T04:35:09.119Z,36.30
2018-05-17T04:37:37.408Z,38.47
2018-05-17T04:40:04.937Z,39.17
2018-05-17T04:42:32.465Z,41.53
2018-05-17T04:45:01.205Z,43.93
2018-05-17T04:47:30.206Z,41.77
2018-05-17T04:49:57.741Z,43.70
2018-05-17T04:52:25.301Z,45.33
2018-05-17T04:54:52.852Z,46.17
2018-05-17T04:57:20.376Z,44.27
2018-05-17T04:59:47.941Z,43.70
2018-05-17T05:02:15.471Z,47.80
2018-05-17T05:04:43.018Z,45.70
2018-05-17T05:07:10.728Z,45.10
2018-05-17T05:09:38.248Z,46.47
2018-05-17T05:12:05.764Z,46.23
2018-05-17T05:14:33.329Z,47.73
2018-05-17T05:17:00.852Z,48.73
2018-05-17T05:19:28.396Z,47.90
2018-05-17T05:21:56.218Z,47.40
2018-05-17T05:24:23.750Z,46.87
2018-05-17T05:26:51.296Z,49.13
2018-05-17T05:29:19.005Z,50.47
2018-05-17T05:31:46.532Z,50.10
2018-05-17T05:34:14.061Z,49.50
2018-05-17T05:36:41.702Z,49.83
2018-05-17T05:39:09.772Z,46.47
2018-05-17T05:41:37.309Z,50.17
2018-05-17T05:44:04.878Z,49.00
2018-05-17T05:46:32.401Z,51.97
2018-05-17T05:48:59.940Z,51.20
2018-05-17T05:51:27.657Z,48.10
2018-05-17T05:53:55.176Z,49.00
2018-05-17T05:56:22.704Z,50.83
2018-05-17T05:58:50.433Z,48.10
2018-05-17T06:01:18.523Z,49.10
2018-05-17T06:03:46.113Z,49.53
2018-05-17T06:06:13.825Z,49.07
2018-05-17T06:08:41.349Z,53.10
2018-05-17T06:11:08.888Z,52.10
2018-05-17T06:13:37.654Z,50.87
2018-05-17T06:16:06.235Z,44.67
2018-05-17T06:18:33.761Z,47.10
2018-05-17T06:21:01.640Z,45.00
2018-05-17T06:23:29.170Z,43.03
2018-05-17T06:25:56.715Z,38.20
2018-05-17T06:28:24.421Z,37.40
2018-05-17T06:30:51.944Z,31.60
2018-05-17T06:33:19.475Z,30.97
2018-05-17T06:35:47.204Z,31.90
2018-05-17T06:38:14.733Z,30.40
2018-05-17T06:40:42.257Z,29.10
2018-05-17T06:43:09.984Z,33.33
2018-05-17T06:45:37.821Z,32.30
2018-05-17T06:48:05.322Z,31.83
2018-05-17T06:50:32.900Z,32.13
2018-05-17T06:53:00.428Z,31.83
2018-05-17T06:55:27.960Z,31.00
2018-05-17T06:57:55.524Z,29.93
2018-05-17T07:00:23.061Z,30.27
2018-05-17T07:02:50.585Z,29.83
2018-05-17T07:05:18.266Z,27.97
2018-05-17T07:07:45.796Z,31.63
2018-05-17T07:10:13.317Z,27.77
2018-05-17T07:12:41.013Z,27.77
2018-05-17T07:15:08.537Z,26.20
2018-05-17T07:17:36.064Z,25.50
2018-05-17T07:20:03.628Z,22.80
2018-05-17T07:22:31.152Z,19.90
2018-05-17T07:24:59.741Z,16.20
2018-05-17T07:27:27.795Z,16.30
2018-05-17T07:29:55.358Z,18.30
2018-05-17T07:32:22.865Z,17.63
2018-05-17T07:34:50.444Z,17.17
2018-05-17T07:37:17.968Z,21.53
2018-05-17T07:39:45.489Z,21.17
2018-05-17T07:42:13.048Z,24.00
2018-05-17T07:44:41.136Z,26.63
2018-05-17T07:47:08.719Z,27.17
2018-05-17T07:49:36.253Z,26.37
2018-05-17T07:52:03.850Z,23.73
2018-05-17T07:54:31.334Z,21.73
2018-05-17T07:56:59.015Z,19.27
2018-05-17T07:59:26.538Z,19.43
2018-05-17T08:01:54.234Z,20.80
2018-05-17T08:04:22.736Z,22.67
2018-05-17T08:06:50.316Z,23.80
2018-05-17T08:09:17.885Z,26.30
2018-05-17T08:11:45.601Z,29.90
2018-05-17T08:14:13.125Z,29.70
2018-05-17T08:16:40.652Z,29.17
2018-05-17T08:19:08.380Z,29.73
2018-05-17T08:21:35.937Z,30.80
2018-05-17T08:24:03.464Z,34.93
2018-05-17T08:26:31.014Z,33.70
2018-05-17T08:28:58.645Z,34.10
2018-05-17T08:31:26.101Z,35.43
2018-05-17T08:33:53.657Z,34.63
2018-05-17T08:36:21.306Z,36.03
2018-05-17T08:38:48.728Z,37.30
2018-05-17T08:41:16.413Z,34.00
2018-05-17T08:43:43.936Z,33.10
2018-05-17T08:46:11.461Z,36.60
2018-05-17T08:48:39.300Z,32.67
2018-05-17T08:51:06.824Z,36.00
2018-05-17T08:53:34.356Z,36.07
2018-05-17T08:56:02.180Z,36.60
2018-05-17T08:58:29.717Z,35.20
2018-05-17T09:00:57.241Z,36.20
2018-05-17T09:03:24.968Z,36.93
2018-05-17T09:05:52.505Z,36.23
2018-05-17T09:08:20.030Z,36.93
2018-05-17T09:10:47.844Z,35.70
2018-05-17T09:13:15.373Z,35.53
2018-05-17T09:15:42.913Z,36.70
2018-05-17T09:18:11.163Z,34.33
2018-05-17T09:20:38.697Z,35.30
2018-05-17T09:23:07.306Z,35.77
2018-05-17T09:25:35.577Z,35.17
2018-05-17T09:28:03.101Z,34.37
2018-05-17T09:30:30.635Z,36.30
2018-05-17T09:32:58.767Z,34.67
2018-05-17T09:35:26.318Z,36.70
2018-05-17T09:37:53.857Z,34.10
2018-05-17T09:40:21.540Z,32.77
2018-05-17T09:42:49.070Z,34.20
2018-05-17T09:45:16.597Z,34.67
2018-05-17T09:47:44.320Z,31.90
2018-05-17T09:50:12.820Z,31.40
2018-05-17T09:52:40.372Z,31.20
2018-05-17T09:55:08.052Z,32.20
2018-05-17T09:57:35.522Z,35.30
2018-05-17T10:00:03.046Z,33.10
2018-05-17T10:02:30.608Z,33.77
2018-05-17T10:04:58.133Z,32.50
2018-05-17T10:07:25.652Z,30.70
2018-05-17T10:09:53.216Z,27.93
2018-05-17T10:12:20.743Z,27.80
2018-05-17T10:14:48.325Z,27.37
2018-05-17T10:17:16.985Z,27.57
2018-05-17T10:19:44.503Z,26.07
2018-05-17T10:22:12.034Z,28.10
2018-05-17T10:24:39.761Z,27.70
2018-05-17T10:27:07.281Z,28.70
2018-05-17T10:29:34.869Z,25.70
2018-05-17T10:32:02.412Z,27.30
2018-05-17T10:34:29.935Z,27.00
2018-05-17T10:36:57.461Z,26.77
2018-05-17T10:39:25.049Z,27.97
2018-05-17T10:41:52.588Z,30.87
2018-05-17T10:44:20.117Z,28.63
2018-05-17T10:46:47.890Z,30.60
2018-05-17T10:49:15.413Z,29.67
2018-05-17T10:51:43.429Z,27.13
2018-05-17T10:54:12.013Z,27.43
2018-05-17T10:56:40.087Z,31.73
2018-05-17T10:59:07.603Z,29.27
2018-05-17T11:01:35.174Z,32.73
2018-05-17T11:04:02.694Z,29.17
2018-05-17T11:06:30.223Z,29.37
2018-05-17T11:08:58.073Z,31.17
2018-05-17T11:11:25.617Z,29.10
2018-05-17T11:13:53.205Z,31.83
2018-05-17T11:16:21.726Z,29.87
2018-05-17T11:18:49.261Z,30.80
2018-05-17T11:21:16.791Z,31.63
2018-05-17T11:23:44.557Z,32.33
2018-05-17T11:26:12.078Z,31.03
2018-05-17T11:28:39.609Z,31.57
2018-05-17T11:31:08.439Z,29.53
2018-05-17T11:33:35.974Z,28.13
2018-05-17T11:36:03.508Z,30.30
2018-05-17T11:38:31.088Z,29.53
2018-05-17T11:40:58.634Z,28.60
2018-05-17T11:43:26.157Z,27.97
2018-05-17T11:45:53.928Z,28.20
2018-05-17T11:48:21.492Z,28.73
2018-05-17T11:50:49.004Z,25.97
2018-05-17T11:53:16.703Z,25.97
2018-05-17T11:55:44.229Z,24.73
2018-05-17T11:58:11.757Z,25.53
2018-05-17T12:00:39.480Z,24.93
2018-05-17T12:03:07.013Z,24.37
2018-05-17T12:05:34.532Z,25.87
2018-05-17T12:08:02.093Z,22.53
2018-05-17T12:10:29.620Z,22.20
2018-05-17T12:12:57.151Z,22.60
2018-05-17T12:15:24.714Z,24.73
2018-05-17T12:17:52.245Z,22.57
2018-05-17T12:20:19.780Z,21.47
2018-05-17T12:22:47.399Z,22.23
2018-05-17T12:25:14.924Z,20.77
2018-05-17T12:27:42.454Z,19.70
2018-05-17T12:30:10.196Z,20.80
2018-05-17T12:32:38.774Z,20.23
2018-05-17T12:35:06.304Z,21.37
2018-05-17T12:37:33.864Z,19.00
2018-05-17T12:40:01.388Z,17.50
2018-05-17T12:42:28.912Z,17.60
2018-05-17T12:44:56.670Z,18.80
2018-05-17T12:47:24.204Z,17.27
2018-05-17T12:49:51.908Z,18.40
2018-05-17T12:52:19.667Z,18.53
2018-05-17T12:54:47.207Z,17.50
2018-05-17T12:57:14.745Z,18.37
2018-05-17T12:59:42.321Z,16.97
2018-05-17T13:02:09.849Z,15.40
2018-05-17T13:04:37.382Z,16.80
2018-05-17T13:07:05.337Z,18.20
2018-05-17T13:09:32.778Z,17.60
2018-05-17T13:12:00.309Z,17.90
2018-05-17T13:14:28.316Z,16.10
2018-05-17T13:16:55.845Z,18.07
2018-05-17T13:19:23.364Z,17.23
2018-05-17T13:21:51.091Z,15.80
2018-05-17T13:24:19.688Z,15.97
2018-05-17T13:26:47.216Z,15.57
2018-05-17T13:29:14.992Z,15.80
2018-05-17T13:31:42.519Z,14.20
2018-05-17T13:34:10.069Z,16.10
2018-05-17T13:36:37.876Z,16.40
2018-05-17T13:39:06.369Z,15.63
2018-05-17T13:41:33.896Z,15.70
2018-05-17T13:44:01.733Z,15.70
2018-05-17T13:46:29.256Z,14.03
2018-05-17T13:48:56.781Z,15.77
2018-05-17T13:51:24.781Z,15.63
2018-05-17T13:53:52.464Z,15.57
2018-05-17T13:56:19.925Z,15.43
2018-05-17T13:58:47.644Z,16.40
2018-05-17T14:01:15.171Z,14.00
2018-05-17T14:03:43.607Z,13.83
2018-05-17T14:06:11.170Z,16.83
2018-05-17T14:08:38.705Z,17.20
2018-05-17T14:11:06.238Z,16.20
2018-05-17T14:13:33.928Z,16.50
2018-05-17T14:16:01.610Z,15.93
2018-05-17T14:18:29.142Z,15.03
2018-05-17T14:20:56.824Z,16.23
2018-05-17T14:23:24.368Z,14.83
2018-05-17T14:25:51.898Z,16.70
2018-05-17T14:28:19.916Z,15.90
2018-05-17T14:30:47.479Z,16.23
2018-05-17T14:33:15.013Z,15.40
2018-05-17T14:35:42.874Z,17.70
2018-05-17T14:38:10.400Z,17.57
2018-05-17T14:40:37.940Z,15.57
2018-05-17T14:43:05.692Z,15.00
2018-05-17T14:45:33.234Z,14.60
2018-05-17T14:48:00.769Z,14.43
2018-05-17T14:50:28.573Z,14.93
2018-05-17T14:52:57.033Z,13.00
2018-05-17T14:55:26.024Z,13.13
2018-05-17T14:57:53.709Z,15.20
2018-05-17T15:00:21.232Z,13.40
2018-05-17T15:02:48.996Z,12.20
2018-05-17T15:05:16.754Z,12.63
2018-05-17T15:07:44.964Z,13.00
2018-05-17T15:10:12.727Z,13.67
2018-05-17T15:12:40.900Z,13.43
2018-05-17T15:15:08.794Z,11.80
2018-05-17T15:17:36.737Z,12.30
2018-05-17T15:20:04.683Z,11.70
2018-05-17T15:22:34.212Z,12.50
2018-05-17T15:25:02.183Z,12.17
2018-05-17T15:27:30.221Z,11.80
2018-05-17T15:29:58.098Z,10.03
2018-05-17T15:32:27.052Z,11.43
2018-05-17T15:34:56.103Z,11.33
2018-05-17T15:37:25.504Z,10.50
2018-05-17T15:39:57.878Z,10.00
2018-05-17T15:42:25.848Z,11.20
2018-05-17T15:44:53.819Z,10.70
2018-05-17T15:47:22.297Z,9.23
2018-05-17T15:49:50.181Z,10.50
2018-05-17T15:52:18.151Z,11.10
2018-05-17T15:54:46.373Z,7.93
2018-05-17T15:57:13.949Z,8.60
2018-05-17T15:59:41.606Z,9.67
2018-05-17T16:02:09.593Z,9.47
2018-05-17T16:04:37.402Z,9.77
2018-05-17T16:07:05.435Z,11.10
2018-05-17T16:09:33.507Z,11.00
2018-05-17T16:12:01.373Z,10.07
2018-05-17T16:14:29.660Z,9.13
2018-05-17T16:16:57.721Z,8.87
2018-05-17T16:19:25.794Z,11.03
2018-05-17T16:21:53.636Z,11.73
2018-05-17T16:24:21.529Z,9.70
2018-05-17T16:26:49.496Z,10.10
2018-05-17T16:29:17.463Z,12.80
2018-05-17T16:31:45.535Z,11.80
2018-05-17T16:34:13.476Z,13.50
2018-05-17T16:36:41.371Z,13.00
2018-05-17T16:39:09.544Z,11.80
2018-05-17T16:41:37.773Z,15.30
2018-05-17T16:44:05.692Z,15.63
2018-05-17T16:46:33.372Z,14.10
2018-05-17T16:49:00.964Z,13.53
2018-05-17T16:51:29.492Z,14.00
2018-05-17T16:53:57.540Z,14.30
2018-05-17T16:56:25.203Z,13.40
2018-05-17T16:58:52.928Z,16.60
2018-05-17T17:01:20.515Z,15.93
2018-05-17T17:03:48.133Z,16.60
2018-05-17T17:06:15.872Z,17.90
2018-05-17T17:08:43.618Z,16.50
2018-05-17T17:11:11.171Z,17.40
2018-05-17T17:13:38.856Z,17.87
2018-05-17T17:16:06.826Z,16.80
2018-05-17T17:18:34.591Z,17.37
2018-05-17T17:21:02.427Z,17.70
2018-05-17T17:23:30.632Z,17.13
2018-05-17T17:25:58.497Z,16.73
2018-05-17T17:28:26.365Z,18.97
2018-05-17T17:30:54.489Z,19.43
2018-05-17T17:33:22.508Z,17.77
2018-05-17T17:35:50.334Z,18.17
2018-05-17T17:38:18.342Z,19.17
2018-05-17T17:40:52.659Z,18.80
2018-05-17T17:43:20.732Z,18.43
2018-05-17T17:45:48.673Z,18.00
2018-05-17T17:48:16.566Z,16.07
2018-05-17T17:50:44.608Z,16.30
2018-05-17T17:53:12.300Z,17.53
2018-05-17T17:55:40.682Z,19.30
2018-05-17T17:58:08.545Z,18.47
2018-05-17T18:00:36.411Z,19.60
2018-05-17T18:03:04.279Z,17.60
2018-05-17T18:05:32.608Z,15.73
2018-05-17T18:08:01.446Z,17.90
2018-05-17T18:10:29.313Z,17.10
2018-05-17T18:12:57.279Z,19.37
2018-05-17T18:15:25.556Z,16.30
2018-05-17T18:17:53.525Z,16.07
2018-05-17T18:20:21.700Z,17.43
2018-05-17T18:22:49.484Z,17.30
2018-05-17T18:25:18.679Z,18.27
2018-05-17T18:27:46.639Z,16.87
2018-05-17T18:30:15.218Z,20.27
2018-05-17T18:32:43.199Z,17.87
2018-05-17T18:35:12.283Z,18.40
2018-05-17T18:37:40.145Z,17.87
2018-05-17T18:40:08.011Z,19.40
2018-05-17T18:42:36.393Z,17.93
2018-05-17T18:45:04.359Z,19.83
2018-05-17T18:47:32.225Z,18.50
2018-05-17T18:50:00.199Z,19.97
2018-05-17T18:52:27.998Z,19.10
2018-05-17T18:54:56.492Z,18.70
2018-05-17T18:57:24.926Z,17.97
2018-05-17T18:59:53.402Z,18.57
2018-05-17T19:02:21.575Z,21.00
2018-05-17T19:04:50.466Z,20.20
2018-05-17T19:07:18.742Z,20.67
2018-05-17T19:09:46.712Z,19.90
2018-05-17T19:12:14.782Z,20.07
2018-05-17T19:14:42.618Z,19.93
2018-05-17T19:17:10.643Z,20.73
2018-05-17T19:19:38.753Z,19.70
2018-05-17T19:22:06.657Z,20.47
2018-05-17T19:24:34.711Z,22.00
2018-05-17T19:27:02.903Z,20.30
2018-05-17T19:29:30.769Z,22.70
2018-05-17T19:31:58.610Z,20.60
2018-05-17T19:34:26.723Z,20.33
2018-05-17T19:36:54.677Z,19.97
2018-05-17T19:39:22.542Z,20.10
2018-05-17T19:41:51.561Z,22.10
2018-05-17T19:44:19.525Z,21.23
2018-05-17T19:46:47.377Z,19.30
2018-05-17T19:49:15.581Z,24.67
2018-05-17T19:51:44.704Z,22.03
2018-05-17T19:54:12.798Z,20.37
2018-05-17T19:56:42.533Z,21.20
2018-05-17T19:59:12.341Z,21.10
2018-05-17T20:01:41.512Z,20.37
2018-05-17T20:04:09.523Z,20.57
2018-05-17T20:06:37.984Z,22.57
2018-05-17T20:09:05.991Z,23.33
2018-05-17T20:11:34.434Z,20.60
2018-05-17T20:14:02.402Z,24.03
2018-05-17T20:16:30.475Z,21.37
2018-05-17T20:18:58.649Z,22.00
2018-05-17T20:21:26.515Z,20.80
2018-05-17T20:23:54.381Z,23.97
2018-05-17T20:26:22.452Z,23.40
2018-05-17T20:28:51.037Z,22.97
2018-05-17T20:31:19.069Z,21.73
2018-05-17T20:33:47.081Z,22.53
2018-05-17T20:36:14.903Z,24.23
2018-05-17T20:38:42.809Z,21.77
2018-05-17T20:41:10.838Z,24.20
2018-05-17T20:43:38.748Z,22.37
2018-05-17T20:46:06.717Z,23.13
2018-05-17T20:48:34.686Z,22.20
2018-05-17T20:51:02.391Z,24.10
2018-05-17T20:53:30.317Z,23.67
2018-05-17T20:55:58.274Z,25.10
2018-05-17T20:58:26.152Z,25.67
2018-05-17T21:00:54.756Z,25.07
2018-05-17T21:03:22.703Z,24.30
2018-05-17T21:05:50.916Z,27.00
2018-05-17T21:08:18.848Z,27.73
2018-05-17T21:10:46.559Z,25.10
2018-05-17T21:13:14.195Z,26.37
2018-05-17T21:15:41.834Z,29.30
2018-05-17T21:18:09.909Z,26.00
2018-05-17T21:20:37.732Z,27.10
2018-05-17T21:23:05.316Z,25.87
2018-05-17T21:25:32.891Z,24.30
2018-05-17T21:28:00.460Z,25.37
2018-05-17T21:30:28.307Z,26.27
2018-05-17T21:32:56.294Z,26.00
2018-05-17T21:35:24.437Z,26.60
2018-05-17T21:37:56.455Z,26.57
2018-05-17T21:40:24.289Z,27.07
2018-05-17T21:42:51.980Z,25.70
2018-05-17T21:45:21.406Z,24.33
2018-05-17T21:47:49.629Z,25.73
2018-05-17T21:50:19.646Z,25.00
2018-05-17T21:52:47.512Z,24.70
2018-05-17T21:55:15.825Z,23.37
2018-05-17T21:57:43.401Z,26.03
2018-05-17T22:00:10.976Z,25.00
2018-05-17T22:02:38.532Z,23.10
2018-05-17T22:05:06.069Z,24.33
2018-05-17T22:07:33.678Z,24.43
2018-05-17T22:10:01.200Z,23.90
2018-05-17T22:12:28.740Z,24.13
2018-05-17T22:14:56.275Z,23.90
2018-05-17T22:17:24.004Z,23.30
2018-05-17T22:19:51.545Z,23.63
2018-05-17T22:22:19.063Z,23.50
2018-05-17T22:24:49.369Z,23.40
2018-05-17T22:27:16.892Z,22.00
2018-05-17T22:29:44.417Z,24.17
2018-05-17T22:32:12.064Z,24.50
2018-05-17T22:34:39.611Z,22.00
2018-05-17T22:37:07.149Z,24.80
2018-05-17T22:39:35.113Z,26.70
2018-05-17T22:42:02.707Z,24.57
2018-05-17T22:44:30.185Z,23.10
2018-05-17T22:46:57.754Z,26.07
2018-05-17T22:49:26.187Z,24.63
2018-05-17T22:51:53.781Z,25.47
2018-05-17T22:54:21.308Z,23.87
2018-05-17T22:57:00.553Z,24.77
2018-05-17T22:59:28.298Z,24.37
2018-05-17T23:01:55.821Z,25.67
2018-05-17T23:04:23.349Z,26.90
2018-05-17T23:06:51.067Z,25.80
2018-05-17T23:09:18.602Z,25.20
2018-05-17T23:11:46.138Z,25.07
2018-05-17T23:14:13.717Z,25.93
2018-05-17T23:16:41.248Z,25.87
2018-05-17T23:19:08.771Z,27.10
2018-05-17T23:21:36.529Z,25.10
2018-05-17T23:24:04.061Z,25.80
2018-05-17T23:26:31.588Z,24.80
2018-05-17T23:28:59.160Z,25.00
2018-05-17T23:31:26.690Z,22.70
2018-05-17T23:33:54.225Z,24.40
2018-05-17T23:36:21.984Z,23.90
2018-05-17T23:38:49.509Z,22.87
2018-05-17T23:41:29.093Z,24.60
2018-05-17T23:43:56.614Z,26.07
2018-05-17T23:46:24.145Z,27.77
2018-05-17T23:48:51.874Z,24.03
2018-05-17T23:51:19.397Z,24.10
2018-05-17T23:53:46.933Z,26.70
2018-05-17T23:56:14.481Z,25.60
2018-05-17T23:58:42.008Z,26.40
